Holly Ann — WDE9094 — position and weather

sailwx.info

Track history (hours):
 
Tides and Currents Weather Stations Pressure Air Temp Water Temp Dewpoint Dewpoint Depression Visibility Wind Speed Wind Dir Waves Ship Positions

Holly Ann

Owner: Manke Tug and Barge Co., Inc., Shelton, WA. More information available from US FCC via Universal Licensing System and Coast Guard Vessel Documentation Center.

Last reported at 2017-Nov-18 15:31 UTC. Time now 2017-Nov-24 02:20 UTC.
Position N 47°13' W 123°05'.

; draft 4.5 m.

Type: Towing. MMSI: 367413350.

Date/timePositionNaut miles runAvg speedWind from/ knotsBaromVisibWave heightAir tempDewpointWater temp
2017-Nov-18 15:31N 47°13' W 123°05'0 0.0
2017-Nov-18 15:30N 47°13' W 123°05'1 1.5
2017-Nov-18 15:00N 47°13' W 123°04'3 6.9
2017-Nov-18 14:30N 47°12' W 122°59'2 4.6
2017-Nov-18 14:00N 47°12' W 122°56'2 4.1
2017-Nov-18 13:30N 47°10' W 122°54'13 6.1
2017-Nov-18 11:23N 47°13' W 122°36'410.9
2017-Nov-18 11:00N 47°17' W 122°33'5 9.1
2017-Nov-18 10:30N 47°21' W 122°33'4 7.4
2017-Nov-18 10:01N 47°25' W 122°32'4 7.6
2017-Nov-18 09:31N 47°29' W 122°31'4 7.9
2017-Nov-18 09:00N 47°32' W 122°28'4 8.5
2017-Nov-18 08:31N 47°35' W 122°24'3 5.2
2017-Nov-18 08:00N 47°34' W 122°21'0 0.3
2017-Nov-18 07:30N 47°34' W 122°21'0 0.0
2017-Nov-18 07:01N 47°34' W 122°21'0 0.0
2017-Nov-18 06:30N 47°34' W 122°21'0 0.0
2017-Nov-18 06:00N 47°34' W 122°21'0 0.0
2017-Nov-18 05:30N 47°34' W 122°21'0 0.0
2017-Nov-18 05:00N 47°34' W 122°21'0 0.0
2017-Nov-18 04:30N 47°34' W 122°21'0 0.0
2017-Nov-18 04:01N 47°34' W 122°21'0 0.0
2017-Nov-18 03:30N 47°34' W 122°21'0 0.0
2017-Nov-18 03:01N 47°34' W 122°21'0 0.0
2017-Nov-18 02:30N 47°34' W 122°21'0 0.0
2017-Nov-18 02:00N 47°34' W 122°21'0 0.0
2017-Nov-18 01:29N 47°34' W 122°21'0 0.0
2017-Nov-18 01:00N 47°34' W 122°21'0 0.0
2017-Nov-18 00:30N 47°34' W 122°21'0 0.0
2017-Nov-18 00:01N 47°34' W 122°21'0 0.0
2017-Nov-17 23:30N 47°34' W 122°21'0 0.0
2017-Nov-17 23:01N 47°34' W 122°21'0 0.0
2017-Nov-17 22:31N 47°34' W 122°21'0 0.0
2017-Nov-17 22:00N 47°34' W 122°21'0 0.0
2017-Nov-17 21:31N 47°34' W 122°21'0 0.0
2017-Nov-17 21:01N 47°34' W 122°21'0 0.0
2017-Nov-17 20:30N 47°34' W 122°21'0 0.0
2017-Nov-17 20:00N 47°34' W 122°21'0 0.0
2017-Nov-17 18:19N 47°34' W 122°21'0 0.0
2017-Nov-17 17:51N 47°34' W 122°21'0 0.0
2017-Nov-17 17:30N 47°34' W 122°21'0 0.0
2017-Nov-17 16:59N 47°34' W 122°21'0 0.0
2017-Nov-17 16:14N 47°34' W 122°21'0 0.0
2017-Nov-17 16:00N 47°34' W 122°21'0 0.0
2017-Nov-17 15:18N 47°34' W 122°21'0 0.0
2017-Nov-17 15:00N 47°34' W 122°21'0 0.0
2017-Nov-17 14:05N 47°34' W 122°21'0 0.0
2017-Nov-17 13:50N 47°34' W 122°21'0 0.0
2017-Nov-17 13:29N 47°34' W 122°21'0 0.0
2017-Nov-17 12:59N 47°34' W 122°21'0 0.0
2017-Nov-17 12:30N 47°34' W 122°21'0 0.0
2017-Nov-17 12:01N 47°34' W 122°21'0 0.0
2017-Nov-17 11:31N 47°34' W 122°21'0 0.0
2017-Nov-17 11:01N 47°34' W 122°21'0 0.1
2017-Nov-17 10:31N 47°34' W 122°21'1 2.2
2017-Nov-17 10:01N 47°35' W 122°22'1 2.1
2017-Nov-17 09:31N 47°36' W 122°23'1 2.3
2017-Nov-17 09:01N 47°36' W 122°24'1 2.7
2017-Nov-17 08:31N 47°34' W 122°26'2 3.3
2017-Nov-17 08:01N 47°33' W 122°26'2 4.0
2017-Nov-17 07:31N 47°32' W 122°28'2 4.2
2017-Nov-17 07:01N 47°30' W 122°30'2 3.9
2017-Nov-17 06:31N 47°28' W 122°31'2 4.1
2017-Nov-17 06:00N 47°26' W 122°31'3 5.3
2017-Nov-17 05:30N 47°23' W 122°32'3 5.9
2017-Nov-17 05:01N 47°20' W 122°33'4 7.0
2017-Nov-17 04:31N 47°17' W 122°32'4 7.0
2017-Nov-17 04:00N 47°14' W 122°35'3 4.9
2017-Nov-17 03:29N 47°12' W 122°38'10 4.4
2017-Nov-17 01:10N 47°10' W 122°52'2 4.9
2017-Nov-17 00:49N 47°10' W 122°55'2 4.8
2017-Nov-17 00:28N 47°12' W 122°56'1 3.1
2017-Nov-17 00:00N 47°12' W 122°58'2 3.3
2017-Nov-16 23:30N 47°12' W 123°00'2 3.6
2017-Nov-16 23:01N 47°12' W 123°03'1 2.9
2017-Nov-16 22:30N 47°13' W 123°05'0 0.2
2017-Nov-16 22:01N 47°13' W 123°05'0 0.0
2017-Nov-15 13:01N 47°13' W 123°05'0 0.3
2017-Nov-15 13:00N 47°13' W 123°05'1 2.0
2017-Nov-15 12:30N 47°12' W 123°04'4 7.1
2017-Nov-15 12:00N 47°12' W 122°59'2 3.9
2017-Nov-15 11:30N 47°11' W 122°56'2 4.5
2017-Nov-15 11:00N 47°10' W 122°54'10 5.8
2017-Nov-15 09:15N 47°11' W 122°39'3 8.4
2017-Nov-15 08:57N 47°13' W 122°36'611.1
2017-Nov-15 08:26N 47°18' W 122°33'4 8.7
2017-Nov-15 08:01N 47°22' W 122°32'4 7.6
2017-Nov-15 07:30N 47°26' W 122°32'4 8.0
2017-Nov-15 07:01N 47°29' W 122°30'4 8.1
2017-Nov-15 06:30N 47°33' W 122°27'4 8.2
2017-Nov-15 06:00N 47°36' W 122°23'3 5.9
2017-Nov-15 05:30N 47°34' W 122°21'0 0.7
2017-Nov-15 05:00N 47°33' W 122°21'0 0.0
2017-Nov-15 04:30N 47°33' W 122°21'0 0.0
2017-Nov-15 04:00N 47°33' W 122°21'0 0.0
2017-Nov-15 03:30N 47°33' W 122°21'0 0.0
2017-Nov-15 03:00N 47°33' W 122°21'0 0.0
2017-Nov-15 02:30N 47°33' W 122°21'0 0.0
2017-Nov-15 02:00N 47°33' W 122°21'0 0.0
2017-Nov-15 01:29N 47°33' W 122°21'0 0.0
2017-Nov-15 01:00N 47°33' W 122°21'0 0.0
2017-Nov-15 00:30N 47°33' W 122°21'0 0.0
2017-Nov-15 00:00N 47°33' W 122°21'0 0.0
2017-Nov-14 23:31N 47°33' W 122°21'0 0.0
2017-Nov-14 23:00N 47°33' W 122°21'0 0.0
2017-Nov-14 22:30N 47°33' W 122°21'0 0.0
2017-Nov-14 22:00N 47°33' W 122°21'0 0.3
2017-Nov-14 21:30N 47°33' W 122°21'0 0.0
2017-Nov-14 21:00N 47°33' W 122°21'0 0.0
2017-Nov-14 20:30N 47°33' W 122°21'0 0.0
2017-Nov-14 20:01N 47°33' W 122°21'0 0.0
2017-Nov-14 19:30N 47°33' W 122°21'0 0.0
2017-Nov-14 19:00N 47°33' W 122°21'0 0.0
2017-Nov-14 18:30N 47°33' W 122°21'0 0.0
2017-Nov-14 18:00N 47°33' W 122°21'0 0.0
2017-Nov-14 17:31N 47°33' W 122°21'0 0.0
2017-Nov-14 17:00N 47°33' W 122°21'0 0.0
2017-Nov-14 16:31N 47°33' W 122°21'0 0.0
2017-Nov-14 16:00N 47°33' W 122°21'0 0.0
2017-Nov-14 15:30N 47°33' W 122°21'0 0.0
2017-Nov-14 15:00N 47°33' W 122°21'0 0.0
2017-Nov-14 14:30N 47°33' W 122°21'0 0.0
2017-Nov-14 14:00N 47°33' W 122°21'0 0.0
2017-Nov-14 13:31N 47°33' W 122°21'0 0.0
2017-Nov-14 13:00N 47°33' W 122°21'0 0.0
2017-Nov-14 12:31N 47°33' W 122°21'0 0.0
2017-Nov-14 12:00N 47°33' W 122°21'0 0.0
2017-Nov-14 11:30N 47°33' W 122°21'0 0.0
2017-Nov-14 11:01N 47°33' W 122°21'0 0.0
2017-Nov-14 10:31N 47°33' W 122°21'0 0.0
2017-Nov-14 10:01N 47°33' W 122°21'0 0.0
2017-Nov-14 09:30N 47°33' W 122°21'0 0.0
2017-Nov-14 09:01N 47°33' W 122°21'0 0.0
2017-Nov-14 08:30N 47°33' W 122°21'0 0.0
2017-Nov-14 08:00N 47°33' W 122°21'0 0.0
2017-Nov-14 07:31N 47°33' W 122°21'0 0.0
2017-Nov-14 07:00N 47°33' W 122°21'0 0.0
2017-Nov-14 06:31N 47°33' W 122°21'0 0.0
2017-Nov-14 06:01N 47°33' W 122°21'0 0.0
2017-Nov-14 05:31N 47°33' W 122°21'0 0.0
2017-Nov-14 05:00N 47°33' W 122°21'0 0.2
2017-Nov-14 04:31N 47°33' W 122°21'0 0.1
2017-Nov-14 04:00N 47°33' W 122°21'0 0.0
2017-Nov-14 03:30N 47°33' W 122°21'0 0.0
2017-Nov-14 03:00N 47°33' W 122°21'0 0.0
2017-Nov-14 02:30N 47°33' W 122°21'0 0.0
2017-Nov-14 02:00N 47°33' W 122°21'0 0.0
2017-Nov-14 01:30N 47°33' W 122°21'0 0.0
2017-Nov-14 01:00N 47°33' W 122°21'0 0.0
2017-Nov-14 00:30N 47°33' W 122°21'0 0.0
2017-Nov-14 00:01N 47°33' W 122°21'0 0.0
2017-Nov-13 23:30N 47°33' W 122°21'0 0.0
2017-Nov-13 23:00N 47°33' W 122°21'0 0.0
2017-Nov-13 22:30N 47°33' W 122°21'0 0.0
2017-Nov-13 21:59N 47°33' W 122°21'  
Track history (hours):
 
Tides and Currents Weather Stations Pressure Air Temp Water Temp Dewpoint Dewpoint Depression Visibility Wind Speed Wind Dir Waves Ship Positions

Holly Ann

Owner: Manke Tug and Barge Co., Inc., Shelton, WA. More information available from US FCC via Universal Licensing System and Coast Guard Vessel Documentation Center.

Last reported at 2017-Nov-18 15:31 UTC. Time now 2017-Nov-24 02:20 UTC.
Position N 47°13' W 123°05'.

; draft 4.5 m.

Type: Towing. MMSI: 367413350.

Date/timePositionNaut miles runAvg speedWind from/ knotsBaromVisibWave heightAir tempDewpointWater temp
2017-Nov-18 15:31N 47°13' W 123°05'0 0.0
2017-Nov-18 15:30N 47°13' W 123°05'1 1.5
2017-Nov-18 15:00N 47°13' W 123°04'3 6.9
2017-Nov-18 14:30N 47°12' W 122°59'2 4.6
2017-Nov-18 14:00N 47°12' W 122°56'2 4.1
2017-Nov-18 13:30N 47°10' W 122°54'13 6.1
2017-Nov-18 11:23N 47°13' W 122°36'410.9
2017-Nov-18 11:00N 47°17' W 122°33'5 9.1
2017-Nov-18 10:30N 47°21' W 122°33'4 7.4
2017-Nov-18 10:01N 47°25' W 122°32'4 7.6
2017-Nov-18 09:31N 47°29' W 122°31'4 7.9
2017-Nov-18 09:00N 47°32' W 122°28'4 8.5
2017-Nov-18 08:31N 47°35' W 122°24'3 5.2
2017-Nov-18 08:00N 47°34' W 122°21'0 0.3
2017-Nov-18 07:30N 47°34' W 122°21'0 0.0
2017-Nov-18 07:01N 47°34' W 122°21'0 0.0
2017-Nov-18 06:30N 47°34' W 122°21'0 0.0
2017-Nov-18 06:00N 47°34' W 122°21'0 0.0
2017-Nov-18 05:30N 47°34' W 122°21'0 0.0
2017-Nov-18 05:00N 47°34' W 122°21'0 0.0
2017-Nov-18 04:30N 47°34' W 122°21'0 0.0
2017-Nov-18 04:01N 47°34' W 122°21'0 0.0
2017-Nov-18 03:30N 47°34' W 122°21'0 0.0
2017-Nov-18 03:01N 47°34' W 122°21'0 0.0
2017-Nov-18 02:30N 47°34' W 122°21'0 0.0
2017-Nov-18 02:00N 47°34' W 122°21'0 0.0
2017-Nov-18 01:29N 47°34' W 122°21'0 0.0
2017-Nov-18 01:00N 47°34' W 122°21'0 0.0
2017-Nov-18 00:30N 47°34' W 122°21'0 0.0
2017-Nov-18 00:01N 47°34' W 122°21'0 0.0
2017-Nov-17 23:30N 47°34' W 122°21'0 0.0
2017-Nov-17 23:01N 47°34' W 122°21'0 0.0
2017-Nov-17 22:31N 47°34' W 122°21'0 0.0
2017-Nov-17 22:00N 47°34' W 122°21'0 0.0
2017-Nov-17 21:31N 47°34' W 122°21'0 0.0
2017-Nov-17 21:01N 47°34' W 122°21'0 0.0
2017-Nov-17 20:30N 47°34' W 122°21'0 0.0
2017-Nov-17 20:00N 47°34' W 122°21'0 0.0
2017-Nov-17 18:19N 47°34' W 122°21'0 0.0
2017-Nov-17 17:51N 47°34' W 122°21'0 0.0
2017-Nov-17 17:30N 47°34' W 122°21'0 0.0
2017-Nov-17 16:59N 47°34' W 122°21'0 0.0
2017-Nov-17 16:14N 47°34' W 122°21'0 0.0
2017-Nov-17 16:00N 47°34' W 122°21'0 0.0
2017-Nov-17 15:18N 47°34' W 122°21'0 0.0
2017-Nov-17 15:00N 47°34' W 122°21'0 0.0
2017-Nov-17 14:05N 47°34' W 122°21'0 0.0
2017-Nov-17 13:50N 47°34' W 122°21'0 0.0
2017-Nov-17 13:29N 47°34' W 122°21'0 0.0
2017-Nov-17 12:59N 47°34' W 122°21'0 0.0
2017-Nov-17 12:30N 47°34' W 122°21'0 0.0
2017-Nov-17 12:01N 47°34' W 122°21'0 0.0
2017-Nov-17 11:31N 47°34' W 122°21'0 0.0
2017-Nov-17 11:01N 47°34' W 122°21'0 0.1
2017-Nov-17 10:31N 47°34' W 122°21'1 2.2
2017-Nov-17 10:01N 47°35' W 122°22'1 2.1
2017-Nov-17 09:31N 47°36' W 122°23'1 2.3
2017-Nov-17 09:01N 47°36' W 122°24'1 2.7
2017-Nov-17 08:31N 47°34' W 122°26'2 3.3
2017-Nov-17 08:01N 47°33' W 122°26'2 4.0
2017-Nov-17 07:31N 47°32' W 122°28'2 4.2
2017-Nov-17 07:01N 47°30' W 122°30'2 3.9
2017-Nov-17 06:31N 47°28' W 122°31'2 4.1
2017-Nov-17 06:00N 47°26' W 122°31'3 5.3
2017-Nov-17 05:30N 47°23' W 122°32'3 5.9
2017-Nov-17 05:01N 47°20' W 122°33'4 7.0
2017-Nov-17 04:31N 47°17' W 122°32'4 7.0
2017-Nov-17 04:00N 47°14' W 122°35'3 4.9
2017-Nov-17 03:29N 47°12' W 122°38'10 4.4
2017-Nov-17 01:10N 47°10' W 122°52'2 4.9
2017-Nov-17 00:49N 47°10' W 122°55'2 4.8
2017-Nov-17 00:28N 47°12' W 122°56'1 3.1
2017-Nov-17 00:00N 47°12' W 122°58'2 3.3
2017-Nov-16 23:30N 47°12' W 123°00'2 3.6
2017-Nov-16 23:01N 47°12' W 123°03'1 2.9
2017-Nov-16 22:30N 47°13' W 123°05'0 0.2
2017-Nov-16 22:01N 47°13' W 123°05'0 0.0
2017-Nov-15 13:01N 47°13' W 123°05'0 0.3
2017-Nov-15 13:00N 47°13' W 123°05'1 2.0
2017-Nov-15 12:30N 47°12' W 123°04'4 7.1
2017-Nov-15 12:00N 47°12' W 122°59'2 3.9
2017-Nov-15 11:30N 47°11' W 122°56'2 4.5
2017-Nov-15 11:00N 47°10' W 122°54'10 5.8
2017-Nov-15 09:15N 47°11' W 122°39'3 8.4
2017-Nov-15 08:57N 47°13' W 122°36'611.1
2017-Nov-15 08:26N 47°18' W 122°33'4 8.7
2017-Nov-15 08:01N 47°22' W 122°32'4 7.6
2017-Nov-15 07:30N 47°26' W 122°32'4 8.0
2017-Nov-15 07:01N 47°29' W 122°30'4 8.1
2017-Nov-15 06:30N 47°33' W 122°27'4 8.2
2017-Nov-15 06:00N 47°36' W 122°23'3 5.9
2017-Nov-15 05:30N 47°34' W 122°21'0 0.7
2017-Nov-15 05:00N 47°33' W 122°21'0 0.0
2017-Nov-15 04:30N 47°33' W 122°21'0 0.0
2017-Nov-15 04:00N 47°33' W 122°21'0 0.0
2017-Nov-15 03:30N 47°33' W 122°21'0 0.0
2017-Nov-15 03:00N 47°33' W 122°21'0 0.0
2017-Nov-15 02:30N 47°33' W 122°21'0 0.0
2017-Nov-15 02:00N 47°33' W 122°21'0 0.0
2017-Nov-15 01:29N 47°33' W 122°21'0 0.0
2017-Nov-15 01:00N 47°33' W 122°21'0 0.0
2017-Nov-15 00:30N 47°33' W 122°21'0 0.0
2017-Nov-15 00:00N 47°33' W 122°21'0 0.0
2017-Nov-14 23:31N 47°33' W 122°21'0 0.0
2017-Nov-14 23:00N 47°33' W 122°21'0 0.0
2017-Nov-14 22:30N 47°33' W 122°21'0 0.0
2017-Nov-14 22:00N 47°33' W 122°21'0 0.3
2017-Nov-14 21:30N 47°33' W 122°21'0 0.0
2017-Nov-14 21:00N 47°33' W 122°21'0 0.0
2017-Nov-14 20:30N 47°33' W 122°21'0 0.0
2017-Nov-14 20:01N 47°33' W 122°21'0 0.0
2017-Nov-14 19:30N 47°33' W 122°21'0 0.0
2017-Nov-14 19:00N 47°33' W 122°21'0 0.0
2017-Nov-14 18:30N 47°33' W 122°21'0 0.0
2017-Nov-14 18:00N 47°33' W 122°21'0 0.0
2017-Nov-14 17:31N 47°33' W 122°21'0 0.0
2017-Nov-14 17:00N 47°33' W 122°21'0 0.0
2017-Nov-14 16:31N 47°33' W 122°21'0 0.0
2017-Nov-14 16:00N 47°33' W 122°21'0 0.0
2017-Nov-14 15:30N 47°33' W 122°21'0 0.0
2017-Nov-14 15:00N 47°33' W 122°21'0 0.0
2017-Nov-14 14:30N 47°33' W 122°21'0 0.0
2017-Nov-14 14:00N 47°33' W 122°21'0 0.0
2017-Nov-14 13:31N 47°33' W 122°21'0 0.0
2017-Nov-14 13:00N 47°33' W 122°21'0 0.0
2017-Nov-14 12:31N 47°33' W 122°21'0 0.0
2017-Nov-14 12:00N 47°33' W 122°21'0 0.0
2017-Nov-14 11:30N 47°33' W 122°21'0 0.0
2017-Nov-14 11:01N 47°33' W 122°21'0 0.0
2017-Nov-14 10:31N 47°33' W 122°21'0 0.0
2017-Nov-14 10:01N 47°33' W 122°21'0 0.0
2017-Nov-14 09:30N 47°33' W 122°21'0 0.0
2017-Nov-14 09:01N 47°33' W 122°21'0 0.0
2017-Nov-14 08:30N 47°33' W 122°21'0 0.0
2017-Nov-14 08:00N 47°33' W 122°21'0 0.0
2017-Nov-14 07:31N 47°33' W 122°21'0 0.0
2017-Nov-14 07:00N 47°33' W 122°21'0 0.0
2017-Nov-14 06:31N 47°33' W 122°21'0 0.0
2017-Nov-14 06:01N 47°33' W 122°21'0 0.0
2017-Nov-14 05:31N 47°33' W 122°21'0 0.0
2017-Nov-14 05:00N 47°33' W 122°21'0 0.2
2017-Nov-14 04:31N 47°33' W 122°21'0 0.1
2017-Nov-14 04:00N 47°33' W 122°21'0 0.0
2017-Nov-14 03:30N 47°33' W 122°21'0 0.0
2017-Nov-14 03:00N 47°33' W 122°21'0 0.0
2017-Nov-14 02:30N 47°33' W 122°21'0 0.0
2017-Nov-14 02:00N 47°33' W 122°21'0 0.0
2017-Nov-14 01:30N 47°33' W 122°21'0 0.0
2017-Nov-14 01:00N 47°33' W 122°21'0 0.0
2017-Nov-14 00:30N 47°33' W 122°21'0 0.0
2017-Nov-14 00:01N 47°33' W 122°21'0 0.0
2017-Nov-13 23:30N 47°33' W 122°21'0 0.0
2017-Nov-13 23:00N 47°33' W 122°21'0 0.0
2017-Nov-13 22:30N 47°33' W 122°21'0 0.0
2017-Nov-13 21:59N 47°33' W 122°21'  

Dump ship's entire track history